Huvudsida
METAR-TAF:

METAR-TAF

Flygplatser :

Kittilä flygplats

Kittilä, Finland

latitud: 67-42N, longitud: 024-51E, höjd: 196 m

Aktuellt väderrapport

Denna rapport gjordes för 25 minuter sedan, klockan 12:50 UTC
Vind 8 kt från syd
Temperatur 14°C
Fuktighet 94%
Tryck 1008 hPa
Sikt 10 km eller mer
Mulet på en höjd av 800 ft
lätta regnskurar

METAR: EFKT 171250Z AUTO 18008KT 9999 -SHRA OVC008 14/13 Q1008

Tid: 16:15 (13:15 UTC)

Väderprognos

Denna rapport gjordes för 42 minuter sedan, klockan 12:33 UTC
Prognos gäller från 17 kl. 12 UTC till 17 kl. 18 UTC
Vind 10 kt från syd
Sikt 10 km eller mer
Mulet på en höjd av 900 ft
lätta regnskurar
Temporärt
från 17 kl. 12 UTC till 17 kl. 14 UTC
Sikt: 7000 m
Brutna moln på en höjd av 1200 ft
Få moln på en höjd av 1500 ft, Cumulonimbus.
regnskurar
Blir
från 17 kl. 14 UTC till 17 kl. 16 UTC
Spridda moln på en höjd av 1500 ft

TAF: EFKT 171233Z 1712/1718 18010KT 9999 -SHRA OVC009 TEMPO 1712/1714 7000 SHRA BKN012 FEW015CB BECMG 1714/1716 SCT015

Aktuella väderrapporter och prognoser från 4000 flygplatser (METAR- och TAF-rapporter).

De tillgängliga stationerna syns som gula och röda prickar på kartan.

För musen över prickarna för att se namnen på stationerna.

Klicka sedan för att få väderrapporter och prognoser.

För att ändra kartan: Klicka på de gröna knapparna med ett svart kors på för att zooma in; den gröna knappen med ett streck på för att zooma ut; eller på de gröna pilarna för angränsande kartor.


METAR-TAF: